sensor_id;sensor_type;location;lat;lon;timestamp;pressure;altitude;pressure_sealevel;temperature;humidity
7182;BME280;3632;42.724;23.298;2022-07-23T00:01:54;95628.81;;;24.01;59.01
7182;BME280;3632;42.724;23.298;2022-07-23T00:04:21;95625.56;;;23.99;59.50
7182;BME280;3632;42.724;23.298;2022-07-23T00:06:48;95636.59;;;24.01;58.66
7182;BME280;3632;42.724;23.298;2022-07-23T00:09:16;95639.97;;;23.89;59.29
7182;BME280;3632;42.724;23.298;2022-07-23T00:11:42;95633.16;;;23.94;59.00
7182;BME280;3632;42.724;23.298;2022-07-23T00:14:09;95583.44;;;23.76;58.43
7182;BME280;3632;42.724;23.298;2022-07-23T00:16:36;95631.69;;;24.20;56.68
7182;BME280;3632;42.724;23.298;2022-07-23T00:19:02;95643.31;;;24.24;56.09
7182;BME280;3632;42.724;23.298;2022-07-23T00:21:29;95637.28;;;24.23;55.85
7182;BME280;3632;42.724;23.298;2022-07-23T00:23:56;95643.13;;;24.25;56.26
7182;BME280;3632;42.724;23.298;2022-07-23T00:26:24;95637.91;;;24.19;55.69
7182;BME280;3632;42.724;23.298;2022-07-23T00:28:51;95641.25;;;24.06;56.19
7182;BME280;3632;42.724;23.298;2022-07-23T00:31:17;95645.00;;;24.03;56.16
7182;BME280;3632;42.724;23.298;2022-07-23T00:33:44;95641.41;;;24.04;56.32
7182;BME280;3632;42.724;23.298;2022-07-23T00:36:11;95641.03;;;24.07;55.14
7182;BME280;3632;42.724;23.298;2022-07-23T00:38:38;95637.19;;;24.03;54.94
7182;BME280;3632;42.724;23.298;2022-07-23T00:41:04;95637.53;;;23.87;56.01
7182;BME280;3632;42.724;23.298;2022-07-23T00:43:32;95620.22;;;23.73;55.68
7182;BME280;3632;42.724;23.298;2022-07-23T00:45:59;95635.56;;;23.96;56.27
7182;BME280;3632;42.724;23.298;2022-07-23T00:48:26;95646.53;;;23.85;56.71
7182;BME280;3632;42.724;23.298;2022-07-23T00:50:53;95643.28;;;23.76;56.65
7182;BME280;3632;42.724;23.298;2022-07-23T00:53:20;95628.78;;;23.33;58.08
7182;BME280;3632;42.724;23.298;2022-07-23T00:55:47;95647.03;;;23.11;58.05
7182;BME280;3632;42.724;23.298;2022-07-23T00:58:16;95647.78;;;23.05;58.76
7182;BME280;3632;42.724;23.298;2022-07-23T01:00:44;95648.75;;;23.04;58.65
7182;BME280;3632;42.724;23.298;2022-07-23T01:03:11;95650.44;;;23.12;58.95
7182;BME280;3632;42.724;23.298;2022-07-23T01:05:38;95644.16;;;23.28;58.30
7182;BME280;3632;42.724;23.298;2022-07-23T01:08:06;95579.78;;;22.81;58.14
7182;BME280;3632;42.724;23.298;2022-07-23T01:10:32;95622.09;;;23.23;57.76
7182;BME280;3632;42.724;23.298;2022-07-23T01:13:01;95594.16;;;23.04;57.40
7182;BME280;3632;42.724;23.298;2022-07-23T01:15:28;95643.00;;;23.37;57.67
7182;BME280;3632;42.724;23.298;2022-07-23T01:17:56;95645.78;;;23.35;57.38
7182;BME280;3632;42.724;23.298;2022-07-23T01:20:23;95643.97;;;23.29;57.49
7182;BME280;3632;42.724;23.298;2022-07-23T01:22:52;95640.31;;;23.23;57.97
7182;BME280;3632;42.724;23.298;2022-07-23T01:25:19;95642.44;;;23.13;58.12
7182;BME280;3632;42.724;23.298;2022-07-23T01:27:45;95647.97;;;23.04;58.05
7182;BME280;3632;42.724;23.298;2022-07-23T01:30:13;95632.63;;;22.88;58.51
7182;BME280;3632;42.724;23.298;2022-07-23T01:32:40;95622.22;;;22.88;59.52
7182;BME280;3632;42.724;23.298;2022-07-23T01:35:07;95634.53;;;23.00;59.40
7182;BME280;3632;42.724;23.298;2022-07-23T01:37:35;95632.47;;;22.96;59.13
7182;BME280;3632;42.724;23.298;2022-07-23T01:40:04;95636.44;;;22.92;59.09
7182;BME280;3632;42.724;23.298;2022-07-23T01:42:31;95629.66;;;22.91;58.95
7182;BME280;3632;42.724;23.298;2022-07-23T01:44:58;95636.66;;;22.90;59.10
7182;BME280;3632;42.724;23.298;2022-07-23T01:47:25;95636.09;;;22.95;58.68
7182;BME280;3632;42.724;23.298;2022-07-23T01:49:52;95633.75;;;23.00;58.37
7182;BME280;3632;42.724;23.298;2022-07-23T01:52:19;95633.06;;;22.91;58.78
7182;BME280;3632;42.724;23.298;2022-07-23T01:54:45;95639.63;;;22.87;58.33
7182;BME280;3632;42.724;23.298;2022-07-23T01:57:14;95633.50;;;22.73;58.89
7182;BME280;3632;42.724;23.298;2022-07-23T01:59:40;95638.16;;;22.78;58.70
7182;BME280;3632;42.724;23.298;2022-07-23T02:02:07;95633.09;;;22.70;58.76
7182;BME280;3632;42.724;23.298;2022-07-23T02:04:34;95629.75;;;22.61;58.48
7182;BME280;3632;42.724;23.298;2022-07-23T02:07:03;95637.59;;;22.47;59.40
7182;BME280;3632;42.724;23.298;2022-07-23T02:09:30;95645.91;;;22.57;59.50
7182;BME280;3632;42.724;23.298;2022-07-23T02:11:57;95636.94;;;22.59;60.13
7182;BME280;3632;42.724;23.298;2022-07-23T02:14:26;95639.88;;;22.71;59.72
7182;BME280;3632;42.724;23.298;2022-07-23T02:16:52;95642.72;;;22.76;59.30
7182;BME280;3632;42.724;23.298;2022-07-23T02:19:19;95641.97;;;22.82;59.08
7182;BME280;3632;42.724;23.298;2022-07-23T02:21:46;95637.47;;;22.91;58.74
7182;BME280;3632;42.724;23.298;2022-07-23T02:24:13;95641.09;;;22.75;58.64
7182;BME280;3632;42.724;23.298;2022-07-23T02:26:39;95625.00;;;22.65;58.53
7182;BME280;3632;42.724;23.298;2022-07-23T02:29:06;95641.56;;;22.79;58.61
7182;BME280;3632;42.724;23.298;2022-07-23T02:31:34;95642.97;;;22.66;59.07
7182;BME280;3632;42.724;23.298;2022-07-23T02:34:01;95645.00;;;22.50;59.80
7182;BME280;3632;42.724;23.298;2022-07-23T02:36:28;95636.66;;;22.33;60.66
7182;BME280;3632;42.724;23.298;2022-07-23T02:38:55;95650.59;;;22.47;60.66
7182;BME280;3632;42.724;23.298;2022-07-23T02:41:22;95560.94;;;21.79;60.70
7182;BME280;3632;42.724;23.298;2022-07-23T02:43:49;95650.94;;;22.22;60.89
7182;BME280;3632;42.724;23.298;2022-07-23T02:46:15;95639.28;;;22.18;61.46
7182;BME280;3632;42.724;23.298;2022-07-23T02:48:43;95646.72;;;22.07;62.06
7182;BME280;3632;42.724;23.298;2022-07-23T02:51:10;95656.31;;;21.92;62.53
7182;BME280;3632;42.724;23.298;2022-07-23T02:53:37;95655.44;;;21.99;62.30
7182;BME280;3632;42.724;23.298;2022-07-23T02:56:04;95643.97;;;21.79;62.69
7182;BME280;3632;42.724;23.298;2022-07-23T02:58:31;95665.91;;;21.76;63.19
7182;BME280;3632;42.724;23.298;2022-07-23T03:00:57;95664.44;;;21.74;63.52
7182;BME280;3632;42.724;23.298;2022-07-23T03:03:24;95676.38;;;21.68;63.40
7182;BME280;3632;42.724;23.298;2022-07-23T03:05:52;95677.88;;;21.63;63.86
7182;BME280;3632;42.724;23.298;2022-07-23T03:08:19;95687.59;;;21.61;64.01
7182;BME280;3632;42.724;23.298;2022-07-23T03:10:45;95676.34;;;21.54;64.05
7182;BME280;3632;42.724;23.298;2022-07-23T03:13:12;95681.09;;;21.50;64.52
7182;BME280;3632;42.724;23.298;2022-07-23T03:15:39;95679.50;;;21.64;64.17
7182;BME280;3632;42.724;23.298;2022-07-23T03:18:05;95682.06;;;21.78;63.67
7182;BME280;3632;42.724;23.298;2022-07-23T03:20:32;95684.59;;;21.86;63.08
7182;BME280;3632;42.724;23.298;2022-07-23T03:23:00;95686.03;;;21.89;63.10
7182;BME280;3632;42.724;23.298;2022-07-23T03:25:27;95683.53;;;21.96;62.23
7182;BME280;3632;42.724;23.298;2022-07-23T03:27:54;95684.50;;;21.95;62.35
7182;BME280;3632;42.724;23.298;2022-07-23T03:30:20;95696.69;;;21.94;62.73
7182;BME280;3632;42.724;23.298;2022-07-23T03:32:47;95696.13;;;21.84;62.83
7182;BME280;3632;42.724;23.298;2022-07-23T03:35:14;95689.31;;;21.83;63.34
7182;BME280;3632;42.724;23.298;2022-07-23T03:37:40;95692.81;;;21.90;62.86
7182;BME280;3632;42.724;23.298;2022-07-23T03:40:09;95693.38;;;22.00;62.42
7182;BME280;3632;42.724;23.298;2022-07-23T03:42:36;95697.75;;;22.00;62.52
7182;BME280;3632;42.724;23.298;2022-07-23T03:45:05;95697.50;;;21.95;62.50
7182;BME280;3632;42.724;23.298;2022-07-23T03:47:32;95675.38;;;21.84;62.18
7182;BME280;3632;42.724;23.298;2022-07-23T03:49:59;95696.25;;;22.05;61.97
7182;BME280;3632;42.724;23.298;2022-07-23T03:52:25;95691.94;;;22.12;61.26
7182;BME280;3632;42.724;23.298;2022-07-23T03:54:52;95692.56;;;22.14;61.00
7182;BME280;3632;42.724;23.298;2022-07-23T03:57:20;95691.22;;;22.18;60.82
7182;BME280;3632;42.724;23.298;2022-07-23T03:59:47;95684.69;;;22.22;60.89
7182;BME280;3632;42.724;23.298;2022-07-23T04:02:14;95699.34;;;22.15;60.97
7182;BME280;3632;42.724;23.298;2022-07-23T04:04:40;95694.44;;;22.20;61.02
7182;BME280;3632;42.724;23.298;2022-07-23T04:07:07;95698.53;;;22.29;60.81
7182;BME280;3632;42.724;23.298;2022-07-23T04:09:34;95695.69;;;22.24;60.77
7182;BME280;3632;42.724;23.298;2022-07-23T04:12:01;95707.69;;;22.25;60.71
7182;BME280;3632;42.724;23.298;2022-07-23T04:14:29;95702.59;;;22.17;61.52
7182;BME280;3632;42.724;23.298;2022-07-23T04:16:55;95669.63;;;21.74;61.67
7182;BME280;3632;42.724;23.298;2022-07-23T04:19:22;95708.50;;;21.97;62.18
7182;BME280;3632;42.724;23.298;2022-07-23T04:21:49;95699.75;;;21.98;62.61
7182;BME280;3632;42.724;23.298;2022-07-23T04:24:16;95702.50;;;21.96;62.33
7182;BME280;3632;42.724;23.298;2022-07-23T04:26:43;95705.72;;;21.98;62.63
7182;BME280;3632;42.724;23.298;2022-07-23T04:29:09;95702.41;;;22.04;62.19
7182;BME280;3632;42.724;23.298;2022-07-23T04:31:38;95709.50;;;22.10;62.36
7182;BME280;3632;42.724;23.298;2022-07-23T04:34:05;95703.41;;;22.03;61.54
7182;BME280;3632;42.724;23.298;2022-07-23T04:36:31;95680.50;;;21.92;61.83
7182;BME280;3632;42.724;23.298;2022-07-23T04:38:58;95706.53;;;22.13;62.02
7182;BME280;3632;42.724;23.298;2022-07-23T04:41:25;95700.53;;;22.27;61.61
7182;BME280;3632;42.724;23.298;2022-07-23T04:43:51;95710.63;;;22.37;60.86
7182;BME280;3632;42.724;23.298;2022-07-23T04:46:18;95711.84;;;22.41;60.23
7182;BME280;3632;42.724;23.298;2022-07-23T04:48:46;95709.25;;;22.41;60.03
7182;BME280;3632;42.724;23.298;2022-07-23T04:51:13;95708.97;;;22.51;59.76
7182;BME280;3632;42.724;23.298;2022-07-23T04:53:40;95718.88;;;22.62;59.58
7182;BME280;3632;42.724;23.298;2022-07-23T04:56:07;95718.53;;;22.65;59.73
7182;BME280;3632;42.724;23.298;2022-07-23T04:58:34;95721.44;;;22.70;59.30
7182;BME280;3632;42.724;23.298;2022-07-23T05:01:01;95673.44;;;22.37;58.88
7182;BME280;3632;42.724;23.298;2022-07-23T05:03:28;95708.16;;;22.65;59.27
7182;BME280;3632;42.724;23.298;2022-07-23T05:05:56;95715.31;;;22.63;59.64
7182;BME280;3632;42.724;23.298;2022-07-23T05:08:23;95707.84;;;22.74;59.15
7182;BME280;3632;42.724;23.298;2022-07-23T05:10:49;95713.81;;;22.90;58.10
7182;BME280;3632;42.724;23.298;2022-07-23T05:13:16;95675.91;;;22.74;58.70
7182;BME280;3632;42.724;23.298;2022-07-23T05:15:44;95716.56;;;23.03;58.58
7182;BME280;3632;42.724;23.298;2022-07-23T05:18:11;95706.16;;;23.03;58.60
7182;BME280;3632;42.724;23.298;2022-07-23T05:20:37;95675.69;;;22.75;58.35
7182;BME280;3632;42.724;23.298;2022-07-23T05:23:06;95714.75;;;23.03;58.35
7182;BME280;3632;42.724;23.298;2022-07-23T05:25:33;95710.97;;;23.06;58.54
7182;BME280;3632;42.724;23.298;2022-07-23T05:28:00;95705.59;;;23.07;58.96
7182;BME280;3632;42.724;23.298;2022-07-23T05:30:27;95703.59;;;22.88;59.47
7182;BME280;3632;42.724;23.298;2022-07-23T05:32:53;95712.28;;;22.95;59.53
7182;BME280;3632;42.724;23.298;2022-07-23T05:35:20;95738.59;;;23.07;59.28
7182;BME280;3632;42.724;23.298;2022-07-23T05:37:47;95716.47;;;23.17;58.89
7182;BME280;3632;42.724;23.298;2022-07-23T05:40:15;95722.97;;;23.28;58.79
7182;BME280;3632;42.724;23.298;2022-07-23T05:42:42;95718.84;;;23.34;58.67
7182;BME280;3632;42.724;23.298;2022-07-23T05:45:10;95711.88;;;23.41;58.20
7182;BME280;3632;42.724;23.298;2022-07-23T05:47:41;95704.94;;;23.27;58.70
7182;BME280;3632;42.724;23.298;2022-07-23T05:50:09;95713.94;;;23.24;59.34
7182;BME280;3632;42.724;23.298;2022-07-23T05:52:36;95717.91;;;23.20;58.91
7182;BME280;3632;42.724;23.298;2022-07-23T05:55:04;95715.63;;;23.10;58.81
7182;BME280;3632;42.724;23.298;2022-07-23T05:57:32;95717.53;;;23.02;59.00
7182;BME280;3632;42.724;23.298;2022-07-23T05:59:59;95719.53;;;23.21;59.50
7182;BME280;3632;42.724;23.298;2022-07-23T06:02:26;95711.47;;;23.37;59.04
7182;BME280;3632;42.724;23.298;2022-07-23T06:04:53;95699.84;;;23.40;57.88
7182;BME280;3632;42.724;23.298;2022-07-23T06:07:19;95705.81;;;23.55;58.42
7182;BME280;3632;42.724;23.298;2022-07-23T06:09:46;95701.13;;;23.72;57.42
7182;BME280;3632;42.724;23.298;2022-07-23T06:12:14;95696.78;;;23.85;56.84
7182;BME280;3632;42.724;23.298;2022-07-23T06:14:42;95709.66;;;23.93;57.36
7182;BME280;3632;42.724;23.298;2022-07-23T06:17:09;95688.06;;;23.99;56.75
7182;BME280;3632;42.724;23.298;2022-07-23T06:19:36;95703.84;;;24.26;56.55
7182;BME280;3632;42.724;23.298;2022-07-23T06:22:03;95705.09;;;24.36;56.66
7182;BME280;3632;42.724;23.298;2022-07-23T06:24:29;95696.94;;;24.52;56.86
7182;BME280;3632;42.724;23.298;2022-07-23T06:26:56;95705.13;;;24.49;56.22
7182;BME280;3632;42.724;23.298;2022-07-23T06:29:23;95695.91;;;24.47;56.75
7182;BME280;3632;42.724;23.298;2022-07-23T06:31:51;95690.09;;;24.45;55.49
7182;BME280;3632;42.724;23.298;2022-07-23T06:34:18;95698.78;;;24.65;55.86
7182;BME280;3632;42.724;23.298;2022-07-23T06:36:44;95698.78;;;24.78;55.81
7182;BME280;3632;42.724;23.298;2022-07-23T06:39:11;95695.25;;;24.86;55.72
7182;BME280;3632;42.724;23.298;2022-07-23T06:41:38;95694.84;;;24.95;55.64
7182;BME280;3632;42.724;23.298;2022-07-23T06:44:05;95664.50;;;24.75;55.36
7182;BME280;3632;42.724;23.298;2022-07-23T06:46:31;95692.44;;;25.00;56.53
7182;BME280;3632;42.724;23.298;2022-07-23T06:49:00;95688.84;;;25.01;56.69
7182;BME280;3632;42.724;23.298;2022-07-23T06:51:27;95688.44;;;25.05;55.40
7182;BME280;3632;42.724;23.298;2022-07-23T06:53:53;95691.28;;;25.03;55.21
7182;BME280;3632;42.724;23.298;2022-07-23T06:56:20;95684.84;;;25.19;54.77
7182;BME280;3632;42.724;23.298;2022-07-23T06:58:47;95694.69;;;25.30;54.78
7182;BME280;3632;42.724;23.298;2022-07-23T07:01:13;95689.88;;;25.40;54.17
7182;BME280;3632;42.724;23.298;2022-07-23T07:03:40;95685.84;;;25.44;54.57
7182;BME280;3632;42.724;23.298;2022-07-23T07:06:08;95688.50;;;25.57;54.44
7182;BME280;3632;42.724;23.298;2022-07-23T07:08:35;95688.28;;;25.59;54.67
7182;BME280;3632;42.724;23.298;2022-07-23T07:11:02;95683.25;;;25.64;54.81
7182;BME280;3632;42.724;23.298;2022-07-23T07:13:29;95681.22;;;25.72;55.08
7182;BME280;3632;42.724;23.298;2022-07-23T07:15:56;95673.63;;;25.71;54.81
7182;BME280;3632;42.724;23.298;2022-07-23T07:18:23;95681.81;;;25.87;54.33
7182;BME280;3632;42.724;23.298;2022-07-23T07:20:49;95673.38;;;25.92;53.71
7182;BME280;3632;42.724;23.298;2022-07-23T07:23:17;95648.25;;;25.91;52.90
7182;BME280;3632;42.724;23.298;2022-07-23T07:25:46;95669.69;;;26.13;52.16
7182;BME280;3632;42.724;23.298;2022-07-23T07:28:13;95661.59;;;26.27;52.54
7182;BME280;3632;42.724;23.298;2022-07-23T07:30:40;95665.56;;;26.43;52.06
7182;BME280;3632;42.724;23.298;2022-07-23T07:33:07;95662.97;;;26.43;51.57
7182;BME280;3632;42.724;23.298;2022-07-23T07:35:33;95659.09;;;26.46;50.69
7182;BME280;3632;42.724;23.298;2022-07-23T07:38:00;95660.50;;;26.48;49.34
7182;BME280;3632;42.724;23.298;2022-07-23T07:40:28;95657.25;;;26.53;48.83
7182;BME280;3632;42.724;23.298;2022-07-23T07:42:55;95642.78;;;26.50;48.20
7182;BME280;3632;42.724;23.298;2022-07-23T07:45:24;95661.59;;;26.72;48.12
7182;BME280;3632;42.724;23.298;2022-07-23T07:47:51;95658.59;;;26.68;47.52
7182;BME280;3632;42.724;23.298;2022-07-23T07:50:18;95659.72;;;26.79;49.10
7182;BME280;3632;42.724;23.298;2022-07-23T07:52:45;95648.63;;;26.90;49.54
7182;BME280;3632;42.724;23.298;2022-07-23T07:55:12;95636.31;;;26.91;48.20
7182;BME280;3632;42.724;23.298;2022-07-23T07:57:41;95640.63;;;27.10;48.20
7182;BME280;3632;42.724;23.298;2022-07-23T08:00:10;95615.72;;;27.01;49.35
7182;BME280;3632;42.724;23.298;2022-07-23T08:02:41;95647.66;;;27.34;48.72
7182;BME280;3632;42.724;23.298;2022-07-23T08:05:08;95645.56;;;27.43;47.72
7182;BME280;3632;42.724;23.298;2022-07-23T08:07:36;95647.09;;;27.57;48.38
7182;BME280;3632;42.724;23.298;2022-07-23T08:10:06;95641.38;;;27.66;48.76
7182;BME280;3632;42.724;23.298;2022-07-23T08:12:44;95611.00;;;27.59;47.84
7182;BME280;3632;42.724;23.298;2022-07-23T08:15:12;95649.72;;;27.93;48.11
7182;BME280;3632;42.724;23.298;2022-07-23T08:17:40;95641.88;;;27.93;48.04
7182;BME280;3632;42.724;23.298;2022-07-23T08:20:08;95623.25;;;27.83;45.14
7182;BME280;3632;42.724;23.298;2022-07-23T08:22:43;95632.34;;;27.99;44.86
7182;BME280;3632;42.724;23.298;2022-07-23T08:25:10;95641.09;;;28.11;45.32
7182;BME280;3632;42.724;23.298;2022-07-23T08:27:37;95624.41;;;28.24;45.30
7182;BME280;3632;42.724;23.298;2022-07-23T08:30:07;95595.19;;;28.02;46.93
7182;BME280;3632;42.724;23.298;2022-07-23T08:32:34;95619.19;;;28.35;46.88
7182;BME280;3632;42.724;23.298;2022-07-23T08:35:13;95630.63;;;28.41;45.94
7182;BME280;3632;42.724;23.298;2022-07-23T08:37:40;95628.06;;;28.52;44.26
7182;BME280;3632;42.724;23.298;2022-07-23T08:40:07;95625.09;;;28.60;43.67
7182;BME280;3632;42.724;23.298;2022-07-23T08:42:35;95631.88;;;28.68;43.79
7182;BME280;3632;42.724;23.298;2022-07-23T08:45:02;95620.78;;;28.84;44.49
7182;BME280;3632;42.724;23.298;2022-07-23T08:47:31;95622.59;;;28.95;44.14
7182;BME280;3632;42.724;23.298;2022-07-23T08:49:58;95614.41;;;29.03;43.86
7182;BME280;3632;42.724;23.298;2022-07-23T08:52:25;95620.38;;;29.22;43.05
7182;BME280;3632;42.724;23.298;2022-07-23T08:54:53;95611.16;;;29.31;43.40
7182;BME280;3632;42.724;23.298;2022-07-23T08:57:20;95615.16;;;29.34;42.82
7182;BME280;3632;42.724;23.298;2022-07-23T08:59:47;95571.63;;;29.26;43.34
7182;BME280;3632;42.724;23.298;2022-07-23T09:02:14;95612.75;;;29.56;42.88
7182;BME280;3632;42.724;23.298;2022-07-23T09:04:42;95610.34;;;29.66;41.75
7182;BME280;3632;42.724;23.298;2022-07-23T09:07:08;95605.41;;;29.81;41.48
7182;BME280;3632;42.724;23.298;2022-07-23T09:09:35;95601.19;;;29.91;41.24
7182;BME280;3632;42.724;23.298;2022-07-23T09:12:03;95596.22;;;30.07;41.23
7182;BME280;3632;42.724;23.298;2022-07-23T09:14:38;95596.28;;;30.23;41.58
7182;BME280;3632;42.724;23.298;2022-07-23T09:17:09;95603.56;;;30.33;40.70
7182;BME280;3632;42.724;23.298;2022-07-23T09:19:36;95606.31;;;30.38;40.63
7182;BME280;3632;42.724;23.298;2022-07-23T09:22:20;95608.34;;;30.36;39.96
7182;BME280;3632;42.724;23.298;2022-07-23T09:25:05;95598.47;;;30.55;39.40
7182;BME280;3632;42.724;23.298;2022-07-23T09:27:52;95600.72;;;30.63;39.26
7182;BME280;3632;42.724;23.298;2022-07-23T09:30:20;95591.94;;;30.74;39.51
7182;BME280;3632;42.724;23.298;2022-07-23T09:33:07;95587.50;;;30.91;38.59
7182;BME280;3632;42.724;23.298;2022-07-23T09:35:46;95593.66;;;30.97;37.63
7182;BME280;3632;42.724;23.298;2022-07-23T09:38:15;95587.09;;;30.99;37.33
7182;BME280;3632;42.724;23.298;2022-07-23T09:40:43;95582.19;;;31.03;36.17
7182;BME280;3632;42.724;23.298;2022-07-23T09:43:10;95577.63;;;31.15;36.53
7182;BME280;3632;42.724;23.298;2022-07-23T09:45:36;95576.09;;;31.36;37.72
7182;BME280;3632;42.724;23.298;2022-07-23T09:48:12;95576.78;;;31.48;33.82
7182;BME280;3632;42.724;23.298;2022-07-23T09:50:40;95574.81;;;31.55;33.30
7182;BME280;3632;42.724;23.298;2022-07-23T09:53:08;95571.09;;;31.72;33.60
7182;BME280;3632;42.724;23.298;2022-07-23T09:55:36;95568.91;;;31.91;34.43
7182;BME280;3632;42.724;23.298;2022-07-23T09:58:05;95571.53;;;32.08;34.55
7182;BME280;3632;42.724;23.298;2022-07-23T10:00:33;95556.44;;;32.25;35.11
7182;BME280;3632;42.724;23.298;2022-07-23T10:03:01;95550.59;;;32.23;34.85
7182;BME280;3632;42.724;23.298;2022-07-23T10:05:29;95514.34;;;32.40;36.66
7182;BME280;3632;42.724;23.298;2022-07-23T10:07:57;95546.44;;;32.86;34.56
7182;BME280;3632;42.724;23.298;2022-07-23T10:10:26;95553.69;;;33.00;33.21
7182;BME280;3632;42.724;23.298;2022-07-23T10:12:55;95552.66;;;33.06;30.83
7182;BME280;3632;42.724;23.298;2022-07-23T10:15:45;95522.47;;;32.97;31.14
7182;BME280;3632;42.724;23.298;2022-07-23T10:18:12;95550.69;;;33.24;30.12
7182;BME280;3632;42.724;23.298;2022-07-23T10:20:39;95543.34;;;33.36;29.57
7182;BME280;3632;42.724;23.298;2022-07-23T10:23:11;95548.41;;;33.37;29.04
7182;BME280;3632;42.724;23.298;2022-07-23T10:25:46;95541.63;;;33.51;28.94
7182;BME280;3632;42.724;23.298;2022-07-23T10:28:38;95539.84;;;33.67;28.43
7182;BME280;3632;42.724;23.298;2022-07-23T10:31:12;95529.63;;;33.86;28.83
7182;BME280;3632;42.724;23.298;2022-07-23T10:33:46;95475.34;;;33.68;28.44
7182;BME280;3632;42.724;23.298;2022-07-23T10:36:19;95518.84;;;34.13;28.67
7182;BME280;3632;42.724;23.298;2022-07-23T10:38:53;95513.59;;;34.23;28.59
7182;BME280;3632;42.724;23.298;2022-07-23T10:41:32;95522.00;;;34.10;27.48
7182;BME280;3632;42.724;23.298;2022-07-23T10:44:11;95517.25;;;34.07;27.55
7182;BME280;3632;42.724;23.298;2022-07-23T10:46:54;95514.09;;;34.15;27.10
7182;BME280;3632;42.724;23.298;2022-07-23T10:49:39;95511.09;;;33.91;26.97
7182;BME280;3632;42.724;23.298;2022-07-23T10:52:17;95495.53;;;33.94;27.50
7182;BME280;3632;42.724;23.298;2022-07-23T10:54:45;95498.53;;;34.38;27.57
7182;BME280;3632;42.724;23.298;2022-07-23T10:57:13;95486.88;;;34.55;26.84
7182;BME280;3632;42.724;23.298;2022-07-23T11:02:56;95499.06;;;35.11;25.76
7182;BME280;3632;42.724;23.298;2022-07-23T11:05:25;95486.09;;;35.15;25.32
7182;BME280;3632;42.724;23.298;2022-07-23T11:08:17;95487.13;;;35.29;25.63
7182;BME280;3632;42.724;23.298;2022-07-23T11:10:50;95478.00;;;35.60;26.55
7182;BME280;3632;42.724;23.298;2022-07-23T11:13:37;95473.38;;;35.86;23.91
7182;BME280;3632;42.724;23.298;2022-07-23T11:16:23;95473.56;;;36.00;23.43
7182;BME280;3632;42.724;23.298;2022-07-23T11:19:07;95464.06;;;35.94;22.94
7182;BME280;3632;42.724;23.298;2022-07-23T11:21:42;95468.47;;;36.13;23.54
7182;BME280;3632;42.724;23.298;2022-07-23T11:24:10;95461.63;;;36.41;23.10
7182;BME280;3632;42.724;23.298;2022-07-23T11:26:44;95460.72;;;36.56;22.71
7182;BME280;3632;42.724;23.298;2022-07-23T11:29:41;95459.41;;;36.53;22.71
7182;BME280;3632;42.724;23.298;2022-07-23T11:32:28;95465.59;;;36.78;21.07
7182;BME280;3632;42.724;23.298;2022-07-23T11:34:57;95420.84;;;36.32;20.53
7182;BME280;3632;42.724;23.298;2022-07-23T11:37:29;95413.91;;;36.36;20.38
7182;BME280;3632;42.724;23.298;2022-07-23T11:39:58;95453.38;;;36.77;19.97
7182;BME280;3632;42.724;23.298;2022-07-23T11:42:25;95453.75;;;36.65;21.42
7182;BME280;3632;42.724;23.298;2022-07-23T11:44:51;95444.34;;;37.06;22.64
7182;BME280;3632;42.724;23.298;2022-07-23T11:47:22;95456.88;;;37.30;21.93
7182;BME280;3632;42.724;23.298;2022-07-23T11:49:53;95448.94;;;37.25;21.46
7182;BME280;3632;42.724;23.298;2022-07-23T11:52:22;95443.50;;;37.59;20.51
7182;BME280;3632;42.724;23.298;2022-07-23T11:54:52;95434.03;;;37.71;20.34
7182;BME280;3632;42.724;23.298;2022-07-23T11:57:21;95434.97;;;37.80;19.88
7182;BME280;3632;42.724;23.298;2022-07-23T11:59:52;95424.16;;;37.90;21.33
7182;BME280;3632;42.724;23.298;2022-07-23T12:02:20;95434.41;;;38.02;19.84
7182;BME280;3632;42.724;23.298;2022-07-23T12:04:49;95437.78;;;38.26;20.02
7182;BME280;3632;42.724;23.298;2022-07-23T12:07:29;95437.75;;;38.45;20.35
7182;BME280;3632;42.724;23.298;2022-07-23T12:09:57;95426.81;;;38.47;19.31
7182;BME280;3632;42.724;23.298;2022-07-23T12:12:24;95426.56;;;38.62;20.63
7182;BME280;3632;42.724;23.298;2022-07-23T12:14:52;95420.88;;;38.82;20.08
7182;BME280;3632;42.724;23.298;2022-07-23T12:17:21;95418.78;;;38.65;18.79
7182;BME280;3632;42.724;23.298;2022-07-23T12:19:48;95417.88;;;38.56;17.73
7182;BME280;3632;42.724;23.298;2022-07-23T12:22:15;95412.66;;;38.65;18.19
7182;BME280;3632;42.724;23.298;2022-07-23T12:24:57;95415.50;;;38.87;18.33
7182;BME280;3632;42.724;23.298;2022-07-23T12:27:24;95415.28;;;39.11;18.41
7182;BME280;3632;42.724;23.298;2022-07-23T12:29:51;95412.56;;;39.30;17.60
7182;BME280;3632;42.724;23.298;2022-07-23T12:32:20;95411.53;;;39.53;17.43
7182;BME280;3632;42.724;23.298;2022-07-23T12:35:03;95407.97;;;39.44;16.65
7182;BME280;3632;42.724;23.298;2022-07-23T12:37:32;95400.28;;;39.28;17.02
7182;BME280;3632;42.724;23.298;2022-07-23T12:40:23;95402.47;;;39.40;16.91
7182;BME280;3632;42.724;23.298;2022-07-23T12:42:52;95381.91;;;39.41;16.75
7182;BME280;3632;42.724;23.298;2022-07-23T12:45:19;95394.09;;;39.69;17.39
7182;BME280;3632;42.724;23.298;2022-07-23T12:48:02;95396.41;;;39.98;18.01
7182;BME280;3632;42.724;23.298;2022-07-23T12:50:49;95346.66;;;39.66;17.63
7182;BME280;3632;42.724;23.298;2022-07-23T12:53:19;95391.63;;;40.08;17.72
7182;BME280;3632;42.724;23.298;2022-07-23T12:55:49;95387.41;;;40.30;17.96
7182;BME280;3632;42.724;23.298;2022-07-23T12:58:17;95390.13;;;40.38;17.52
7182;BME280;3632;42.724;23.298;2022-07-23T13:01:05;95377.63;;;40.25;16.44
7182;BME280;3632;42.724;23.298;2022-07-23T13:03:37;95384.06;;;40.24;15.76
7182;BME280;3632;42.724;23.298;2022-07-23T13:06:06;95390.44;;;40.14;15.54
7182;BME280;3632;42.724;23.298;2022-07-23T13:08:35;95376.03;;;40.02;16.55
7182;BME280;3632;42.724;23.298;2022-07-23T13:11:05;95376.16;;;39.97;17.70
7182;BME280;3632;42.724;23.298;2022-07-23T13:13:33;95381.75;;;40.09;16.93
7182;BME280;3632;42.724;23.298;2022-07-23T13:16:01;95379.97;;;40.04;15.14
7182;BME280;3632;42.724;23.298;2022-07-23T13:18:28;95374.25;;;39.75;15.74
7182;BME280;3632;42.724;23.298;2022-07-23T13:20:56;95375.22;;;39.65;15.24
7182;BME280;3632;42.724;23.298;2022-07-23T13:23:23;95371.72;;;39.92;15.25